createdAt,value
2023-05-22T00:01:49.475Z,3.27
2023-05-22T00:04:21.600Z,3.10
2023-05-22T00:06:50.623Z,2.73
2023-05-22T00:09:20.226Z,2.93
2023-05-22T00:11:48.607Z,3.50
2023-05-22T00:14:17.057Z,2.93
2023-05-22T00:16:46.240Z,3.50
2023-05-22T00:19:16.873Z,2.67
2023-05-22T00:21:45.327Z,3.60
2023-05-22T00:24:13.935Z,2.40
2023-05-22T00:26:43.473Z,2.80
2023-05-22T00:29:11.656Z,2.87
2023-05-22T00:31:39.862Z,3.13
2023-05-22T00:34:08.356Z,2.80
2023-05-22T00:36:36.828Z,3.47
2023-05-22T00:39:05.085Z,2.87
2023-05-22T00:41:34.795Z,2.90
2023-05-22T00:44:04.419Z,2.80
2023-05-22T00:46:34.206Z,3.10
2023-05-22T00:49:03.128Z,3.30
2023-05-22T00:51:31.412Z,2.87
2023-05-22T00:53:59.852Z,2.80
2023-05-22T00:56:29.058Z,2.30
2023-05-22T00:58:57.525Z,2.37
2023-05-22T01:01:33.408Z,3.33
2023-05-22T01:04:03.926Z,3.20
2023-05-22T01:06:32.710Z,3.40
2023-05-22T01:09:00.883Z,3.10
2023-05-22T01:11:35.757Z,2.50
2023-05-22T01:14:11.520Z,2.70
2023-05-22T01:16:48.488Z,2.70
2023-05-22T01:19:35.897Z,2.70
2023-05-22T01:22:21.501Z,2.67
2023-05-22T01:25:09.415Z,3.00
2023-05-22T01:28:11.055Z,2.90
2023-05-22T01:30:53.920Z,2.90
2023-05-22T01:33:26.432Z,2.60
2023-05-22T01:35:58.440Z,3.00
2023-05-22T01:38:26.925Z,3.10
2023-05-22T01:40:55.994Z,3.13
2023-05-22T01:43:24.368Z,2.80
2023-05-22T01:45:54.021Z,2.77
2023-05-22T01:48:22.256Z,2.90
2023-05-22T01:50:53.272Z,3.20
2023-05-22T01:53:26.926Z,2.80
2023-05-22T01:56:02.695Z,3.10
2023-05-22T01:58:38.657Z,2.97
2023-05-22T02:01:11.284Z,3.50
2023-05-22T02:03:41.207Z,2.93
2023-05-22T02:06:14.139Z,2.83
2023-05-22T02:08:43.930Z,3.60
2023-05-22T02:11:13.726Z,2.90
2023-05-22T02:13:42.924Z,3.40
2023-05-22T02:16:14.103Z,3.13
2023-05-22T02:18:43.087Z,2.97
2023-05-22T02:21:11.298Z,2.90
2023-05-22T02:23:39.560Z,2.60
2023-05-22T02:26:08.162Z,2.60
2023-05-22T02:28:36.334Z,2.87
2023-05-22T02:31:04.737Z,2.80
2023-05-22T02:33:34.264Z,3.47
2023-05-22T02:36:02.641Z,3.17
2023-05-22T02:38:31.263Z,2.50
2023-05-22T02:40:59.514Z,2.40
2023-05-22T02:43:27.675Z,2.80
2023-05-22T02:45:55.916Z,2.83
2023-05-22T02:48:24.242Z,2.63
2023-05-22T02:50:54.686Z,2.70
2023-05-22T02:53:22.877Z,2.90
2023-05-22T02:55:52.841Z,2.80
2023-05-22T02:58:23.220Z,3.30
2023-05-22T03:00:53.972Z,3.33
2023-05-22T03:03:25.099Z,3.00
2023-05-22T03:05:58.264Z,3.40
2023-05-22T03:08:28.258Z,2.73
2023-05-22T03:10:57.094Z,3.00
2023-05-22T03:13:25.635Z,3.10
2023-05-22T03:15:54.001Z,2.73
2023-05-22T03:18:23.410Z,3.37
2023-05-22T03:20:54.430Z,3.20
2023-05-22T03:23:22.633Z,3.03
2023-05-22T03:25:51.226Z,3.90
2023-05-22T03:28:19.546Z,3.00
2023-05-22T03:30:48.313Z,2.87
2023-05-22T03:33:24.687Z,3.07
2023-05-22T03:35:54.479Z,3.00
2023-05-22T03:38:22.910Z,3.40
2023-05-22T03:40:51.066Z,2.60
2023-05-22T03:43:19.284Z,2.97
2023-05-22T03:45:47.460Z,2.60
2023-05-22T03:48:15.860Z,3.00
2023-05-22T03:50:44.041Z,3.33
2023-05-22T03:53:15.332Z,2.97
2023-05-22T03:55:43.533Z,3.10
2023-05-22T03:58:11.651Z,3.43
2023-05-22T04:00:40.405Z,3.13
2023-05-22T04:03:12.988Z,2.67
2023-05-22T04:05:41.350Z,2.43
2023-05-22T04:08:09.602Z,3.03
2023-05-22T04:10:41.151Z,2.90
2023-05-22T04:13:09.682Z,2.90
2023-05-22T04:15:38.007Z,3.40
2023-05-22T04:18:06.281Z,2.90
2023-05-22T04:20:34.837Z,3.40
2023-05-22T04:23:03.052Z,3.00
2023-05-22T04:25:34.300Z,3.00
2023-05-22T04:28:04.332Z,3.23
2023-05-22T04:30:34.070Z,2.80
2023-05-22T04:33:03.002Z,3.43
2023-05-22T04:35:31.905Z,2.97
2023-05-22T04:38:02.146Z,3.10
2023-05-22T04:40:33.756Z,3.20
2023-05-22T04:43:03.549Z,2.90
2023-05-22T04:45:32.944Z,3.30
2023-05-22T04:48:02.641Z,3.20
2023-05-22T04:50:34.495Z,3.13
2023-05-22T04:53:05.819Z,2.67
2023-05-22T04:55:34.878Z,3.30
2023-05-22T04:58:05.857Z,3.90
2023-05-22T05:00:34.553Z,3.37
2023-05-22T05:03:02.886Z,3.20
2023-05-22T05:05:31.417Z,3.20
2023-05-22T05:08:00.736Z,3.03
2023-05-22T05:10:29.001Z,2.93
2023-05-22T05:12:57.239Z,2.90
2023-05-22T05:15:27.615Z,2.80
2023-05-22T05:17:56.194Z,3.20
2023-05-22T05:20:25.027Z,3.37
2023-05-22T05:22:53.202Z,3.03
2023-05-22T05:25:21.865Z,2.70
2023-05-22T05:27:50.271Z,3.10
2023-05-22T05:30:20.464Z,3.10
2023-05-22T05:33:11.701Z,2.60
2023-05-22T05:35:55.633Z,3.57
2023-05-22T05:38:26.064Z,3.07
2023-05-22T05:40:55.265Z,2.80
2023-05-22T05:43:25.393Z,3.30
2023-05-22T05:45:55.807Z,2.97
2023-05-22T05:48:25.462Z,3.33
2023-05-22T05:50:53.853Z,3.17
2023-05-22T05:53:22.527Z,2.70
2023-05-22T05:55:56.559Z,2.70
2023-05-22T05:58:24.841Z,3.87
2023-05-22T06:01:08.634Z,2.90
2023-05-22T06:03:39.617Z,2.73
2023-05-22T06:06:15.413Z,2.70
2023-05-22T06:09:02.264Z,2.93
2023-05-22T06:11:34.677Z,3.17
2023-05-22T06:14:05.148Z,2.47
2023-05-22T06:16:33.459Z,3.00
2023-05-22T06:19:04.668Z,2.57
2023-05-22T06:21:33.323Z,3.40
2023-05-22T06:24:01.551Z,9.10
2023-05-22T06:26:30.626Z,12.13
2023-05-22T06:28:58.892Z,10.50
2023-05-22T06:31:28.185Z,11.50
2023-05-22T06:33:58.941Z,11.70
2023-05-22T06:36:28.669Z,12.47
2023-05-22T06:38:57.351Z,13.67
2023-05-22T06:41:48.330Z,13.50
2023-05-22T06:44:17.239Z,14.50
2023-05-22T06:46:45.392Z,15.60
2023-05-22T06:49:20.863Z,17.00
2023-05-22T06:51:54.395Z,17.77
2023-05-22T06:54:22.889Z,17.20
2023-05-22T06:56:56.788Z,21.33
2023-05-22T06:59:27.342Z,22.20
2023-05-22T07:02:07.835Z,19.63
2023-05-22T07:04:54.475Z,19.93
2023-05-22T07:07:31.098Z,18.00
2023-05-22T07:09:59.332Z,17.97
2023-05-22T07:12:29.663Z,15.37
2023-05-22T07:15:00.154Z,12.77
2023-05-22T07:17:29.326Z,14.57
2023-05-22T07:19:58.907Z,15.67
2023-05-22T07:22:27.735Z,17.37
2023-05-22T07:24:58.775Z,14.67
2023-05-22T07:27:31.975Z,14.00
2023-05-22T07:30:02.405Z,14.40
2023-05-22T07:32:32.157Z,17.53
2023-05-22T07:35:03.182Z,13.70
2023-05-22T07:37:32.428Z,13.47
2023-05-22T07:40:02.130Z,13.93
2023-05-22T07:42:31.989Z,14.00
2023-05-22T07:45:00.367Z,17.07
2023-05-22T07:47:28.854Z,16.57
2023-05-22T07:49:57.171Z,16.40
2023-05-22T07:52:25.498Z,17.50
2023-05-22T07:54:54.602Z,17.60
2023-05-22T07:57:25.695Z,23.40
2023-05-22T07:59:56.520Z,17.70
2023-05-22T08:02:24.863Z,15.17
2023-05-22T08:04:53.139Z,14.70
2023-05-22T08:07:21.450Z,14.20
2023-05-22T08:09:49.651Z,13.70
2023-05-22T08:12:17.896Z,15.57
2023-05-22T08:14:47.488Z,16.53
2023-05-22T08:17:15.808Z,17.97
2023-05-22T08:19:44.103Z,15.43
2023-05-22T08:22:12.356Z,15.00
2023-05-22T08:24:41.031Z,16.90
2023-05-22T08:27:09.184Z,16.67
2023-05-22T08:29:37.863Z,15.00
2023-05-22T08:32:08.388Z,14.73
2023-05-22T08:34:36.944Z,15.17
2023-05-22T08:37:06.486Z,16.53
2023-05-22T08:39:34.686Z,12.90
2023-05-22T08:42:04.037Z,13.50
2023-05-22T08:44:33.030Z,12.40
2023-05-22T08:47:05.109Z,11.83
2023-05-22T08:49:34.825Z,10.20
2023-05-22T08:52:12.001Z,11.90
2023-05-22T08:54:43.447Z,9.80
2023-05-22T08:57:12.570Z,10.53
2023-05-22T08:59:42.081Z,10.47
2023-05-22T09:02:10.823Z,10.83
2023-05-22T09:04:42.023Z,11.07
2023-05-22T09:07:10.207Z,11.03
2023-05-22T09:09:38.709Z,9.70
2023-05-22T09:12:10.207Z,10.17
2023-05-22T09:14:42.000Z,10.67
2023-05-22T09:17:11.407Z,9.70
2023-05-22T09:19:45.589Z,9.27
2023-05-22T09:22:14.661Z,9.27
2023-05-22T09:24:43.779Z,9.53
2023-05-22T09:27:12.922Z,9.77
2023-05-22T09:29:50.949Z,10.10
2023-05-22T09:32:19.957Z,9.80
2023-05-22T09:34:49.803Z,9.63
2023-05-22T09:37:18.813Z,9.20
2023-05-22T09:39:51.457Z,9.67
2023-05-22T09:42:19.844Z,9.40
2023-05-22T09:44:49.749Z,9.17
2023-05-22T09:47:18.312Z,9.60
2023-05-22T09:49:47.544Z,8.47
2023-05-22T09:52:20.536Z,8.70
2023-05-22T09:54:55.219Z,9.47
2023-05-22T09:57:25.245Z,9.57
2023-05-22T09:59:58.365Z,9.33
2023-05-22T10:02:28.029Z,8.87
2023-05-22T10:04:56.494Z,9.70
2023-05-22T10:07:31.284Z,9.00
2023-05-22T10:10:06.440Z,9.50
2023-05-22T10:12:37.833Z,8.70
2023-05-22T10:15:09.349Z,9.17
2023-05-22T10:17:39.205Z,8.40
2023-05-22T10:20:10.007Z,9.63
2023-05-22T10:22:40.185Z,9.90
2023-05-22T10:25:10.734Z,9.17
2023-05-22T10:27:40.192Z,9.43
2023-05-22T10:30:19.172Z,8.33
2023-05-22T10:33:14.013Z,8.60
2023-05-22T10:35:48.654Z,9.13
2023-05-22T10:38:35.850Z,8.70
2023-05-22T10:41:05.192Z,8.43
2023-05-22T10:43:33.508Z,9.07
2023-05-22T10:46:05.638Z,8.77
2023-05-22T10:48:39.234Z,9.20
2023-05-22T10:51:08.895Z,9.80
2023-05-22T10:53:38.619Z,9.23
2023-05-22T10:56:14.342Z,9.40
2023-05-22T10:58:45.952Z,9.57
2023-05-22T11:01:15.307Z,8.40
2023-05-22T11:03:54.224Z,8.07
2023-05-22T11:06:37.145Z,9.13
2023-05-22T11:09:29.407Z,8.60
2023-05-22T11:12:19.477Z,9.27
2023-05-22T11:14:55.754Z,8.50
2023-05-22T11:17:25.998Z,8.73
2023-05-22T11:20:02.125Z,8.37
2023-05-22T11:22:38.195Z,8.90
2023-05-22T11:25:09.587Z,8.77
2023-05-22T11:27:39.179Z,9.10
2023-05-22T11:30:09.413Z,7.90
2023-05-22T11:32:38.257Z,8.00
2023-05-22T11:35:08.507Z,7.70
2023-05-22T11:37:40.734Z,8.17
2023-05-22T11:40:11.596Z,8.37
2023-05-22T11:42:39.999Z,8.23
2023-05-22T11:45:09.147Z,8.37
2023-05-22T11:47:37.968Z,7.97
2023-05-22T11:50:09.683Z,7.70
2023-05-22T11:52:39.501Z,7.60
2023-05-22T11:55:11.084Z,8.10
2023-05-22T11:57:39.593Z,8.20
2023-05-22T12:00:09.958Z,7.60
2023-05-22T12:02:46.577Z,8.30
2023-05-22T12:05:16.476Z,7.97
2023-05-22T12:07:44.970Z,7.73
2023-05-22T12:10:15.168Z,8.10
2023-05-22T12:12:44.619Z,8.47
2023-05-22T12:15:13.440Z,8.17
2023-05-22T12:17:42.129Z,8.90
2023-05-22T12:20:14.800Z,8.97
2023-05-22T12:22:43.931Z,8.70
2023-05-22T12:25:18.081Z,8.00
2023-05-22T12:27:46.540Z,8.27
2023-05-22T12:30:16.066Z,8.80
2023-05-22T12:32:48.842Z,7.83
2023-05-22T12:35:17.520Z,7.80
2023-05-22T12:37:50.285Z,8.63
2023-05-22T12:40:20.170Z,8.50
2023-05-22T12:42:49.462Z,8.83
2023-05-22T12:45:18.071Z,8.07
2023-05-22T12:47:46.542Z,8.53
2023-05-22T12:50:15.286Z,8.70
2023-05-22T12:52:43.604Z,8.50
2023-05-22T12:55:12.091Z,7.87
2023-05-22T12:57:41.863Z,8.60
2023-05-22T13:00:11.441Z,8.03
2023-05-22T13:02:39.744Z,8.07
2023-05-22T13:05:08.591Z,8.20
2023-05-22T13:07:36.987Z,8.40
2023-05-22T13:10:05.847Z,8.57
2023-05-22T13:12:34.076Z,8.00
2023-05-22T13:15:03.818Z,7.70
2023-05-22T13:17:32.243Z,8.20
2023-05-22T13:20:00.562Z,7.53
2023-05-22T13:22:28.811Z,7.43
2023-05-22T13:24:56.975Z,7.40
2023-05-22T13:27:25.222Z,7.00
2023-05-22T13:29:53.421Z,8.27
2023-05-22T13:32:23.382Z,7.57
2023-05-22T13:34:51.693Z,7.53
2023-05-22T13:37:20.159Z,7.00
2023-05-22T13:39:48.489Z,6.50
2023-05-22T13:42:16.861Z,7.60
2023-05-22T13:44:45.086Z,6.83
2023-05-22T13:47:13.534Z,7.20
2023-05-22T13:49:43.159Z,6.60
2023-05-22T13:52:11.370Z,6.20
2023-05-22T13:54:40.933Z,7.07
2023-05-22T13:57:09.342Z,6.63
2023-05-22T13:59:37.591Z,6.97
2023-05-22T14:02:06.490Z,6.00
2023-05-22T14:04:34.965Z,6.80
2023-05-22T14:07:06.254Z,6.90
2023-05-22T14:09:34.458Z,7.77
2023-05-22T14:12:02.727Z,7.77
2023-05-22T14:14:31.383Z,7.77
2023-05-22T14:17:00.190Z,9.07
2023-05-22T14:19:28.844Z,8.33
2023-05-22T14:21:57.174Z,8.20
2023-05-22T14:24:26.993Z,8.87
2023-05-22T14:26:58.210Z,8.87
2023-05-22T14:29:26.825Z,8.57
2023-05-22T14:31:56.656Z,8.77
2023-05-22T14:34:25.476Z,8.87
2023-05-22T14:36:56.525Z,8.80
2023-05-22T14:39:26.695Z,8.57
2023-05-22T14:41:55.542Z,8.60
2023-05-22T14:44:24.081Z,8.77
2023-05-22T14:46:53.559Z,9.10
2023-05-22T14:49:22.348Z,7.70
2023-05-22T14:51:51.692Z,8.50
2023-05-22T14:54:21.919Z,7.83
2023-05-22T14:56:52.933Z,7.53
2023-05-22T14:59:22.552Z,7.50
2023-05-22T15:01:52.260Z,7.87
2023-05-22T15:04:21.110Z,7.70
2023-05-22T15:06:49.491Z,7.60
2023-05-22T15:09:17.691Z,7.60
2023-05-22T15:11:49.085Z,8.07
2023-05-22T15:14:19.005Z,7.27
2023-05-22T15:16:50.232Z,7.50
2023-05-22T15:19:18.685Z,6.77
2023-05-22T15:21:46.912Z,6.90
2023-05-22T15:24:15.184Z,8.40
2023-05-22T15:26:43.353Z,7.17
2023-05-22T15:29:12.611Z,7.10
2023-05-22T15:31:42.173Z,7.80
2023-05-22T15:34:10.516Z,7.60
2023-05-22T15:36:40.297Z,7.63
2023-05-22T15:39:08.580Z,8.70
2023-05-22T15:41:36.798Z,7.23
2023-05-22T15:44:05.099Z,7.23
2023-05-22T15:46:33.338Z,7.53
2023-05-22T15:49:02.971Z,7.67
2023-05-22T15:51:31.230Z,6.63
2023-05-22T15:53:59.547Z,9.30
2023-05-22T15:56:27.888Z,11.40
2023-05-22T15:58:56.084Z,13.97
2023-05-22T16:01:24.283Z,12.30
2023-05-22T16:03:52.596Z,11.67
2023-05-22T16:06:23.285Z,12.40
2023-05-22T16:08:51.474Z,13.07
2023-05-22T16:11:19.703Z,14.00
2023-05-22T16:13:48.002Z,11.60
2023-05-22T16:16:17.393Z,11.40
2023-05-22T16:18:45.658Z,10.50
2023-05-22T16:21:13.916Z,12.10
2023-05-22T16:23:43.388Z,12.47
2023-05-22T16:26:11.608Z,12.90
2023-05-22T16:28:39.759Z,12.33
2023-05-22T16:31:07.952Z,11.50
2023-05-22T16:33:37.631Z,12.50
2023-05-22T16:36:06.334Z,11.90
2023-05-22T16:38:34.450Z,11.23
2023-05-22T16:41:03.964Z,10.57
2023-05-22T16:43:32.142Z,11.00
2023-05-22T16:46:00.316Z,11.50
2023-05-22T16:48:28.527Z,11.63
2023-05-22T16:50:56.714Z,11.17
2023-05-22T16:53:24.918Z,10.57
2023-05-22T16:55:53.226Z,10.90
2023-05-22T16:58:22.790Z,10.67
2023-05-22T17:00:51.512Z,11.43
2023-05-22T17:03:20.530Z,11.23
2023-05-22T17:05:50.041Z,9.97
2023-05-22T17:08:18.228Z,12.40
2023-05-22T17:10:46.369Z,10.73
2023-05-22T17:13:20.697Z,10.17
2023-05-22T17:15:51.456Z,11.70
2023-05-22T17:18:21.123Z,8.80
2023-05-22T17:20:50.045Z,10.90
2023-05-22T17:23:18.665Z,9.73
2023-05-22T17:25:47.506Z,9.67
2023-05-22T17:28:15.890Z,9.27
2023-05-22T17:30:45.174Z,11.73
2023-05-22T17:33:14.985Z,11.40
2023-05-22T17:35:43.273Z,11.87
2023-05-22T17:38:11.423Z,11.47
2023-05-22T17:40:44.997Z,12.37
2023-05-22T17:43:14.599Z,12.67
2023-05-22T17:45:44.432Z,11.23
2023-05-22T17:48:15.879Z,11.30
2023-05-22T17:50:44.166Z,11.77
2023-05-22T17:53:13.485Z,11.67
2023-05-22T17:55:41.624Z,10.60
2023-05-22T17:58:09.886Z,12.43
2023-05-22T18:00:38.159Z,12.83
2023-05-22T18:03:07.461Z,8.70
2023-05-22T18:05:37.297Z,11.33
2023-05-22T18:08:05.514Z,9.10
2023-05-22T18:10:33.676Z,8.97
2023-05-22T18:13:01.839Z,9.20
2023-05-22T18:15:30.034Z,9.57
2023-05-22T18:17:58.244Z,10.43
2023-05-22T18:20:26.600Z,8.73
2023-05-22T18:22:56.147Z,10.37
2023-05-22T18:25:24.336Z,9.10
2023-05-22T18:27:52.535Z,9.70
2023-05-22T18:30:20.710Z,8.40
2023-05-22T18:32:48.897Z,8.17
2023-05-22T18:35:17.121Z,9.47
2023-05-22T18:37:45.305Z,10.10
2023-05-22T18:40:15.288Z,10.13
2023-05-22T18:42:44.320Z,10.83
2023-05-22T18:45:13.456Z,10.30
2023-05-22T18:47:41.810Z,9.77
2023-05-22T18:50:10.547Z,10.97
2023-05-22T18:52:39.988Z,10.80
2023-05-22T18:55:08.984Z,9.80
2023-05-22T18:57:38.520Z,11.33
2023-05-22T19:00:10.223Z,10.27
2023-05-22T19:02:38.498Z,10.20
2023-05-22T19:05:07.661Z,9.40
2023-05-22T19:07:36.018Z,10.60
2023-05-22T19:10:07.112Z,8.93
2023-05-22T19:12:36.270Z,9.63
2023-05-22T19:15:07.350Z,9.83
2023-05-22T19:17:35.592Z,10.30
2023-05-22T19:20:06.539Z,9.53
2023-05-22T19:22:34.954Z,9.07
2023-05-22T19:25:03.158Z,9.43
2023-05-22T19:27:31.362Z,9.37
2023-05-22T19:29:59.541Z,8.67
2023-05-22T19:32:29.312Z,9.03
2023-05-22T19:34:57.461Z,8.50
2023-05-22T19:37:25.710Z,8.37
2023-05-22T19:39:54.453Z,9.67
2023-05-22T19:42:22.655Z,9.13
2023-05-22T19:44:50.847Z,8.07
2023-05-22T19:47:19.055Z,9.50
2023-05-22T19:49:48.583Z,9.93
2023-05-22T19:52:16.752Z,7.77
2023-05-22T19:54:44.963Z,8.97
2023-05-22T19:57:13.120Z,9.50
2023-05-22T19:59:41.299Z,9.17
2023-05-22T20:02:09.619Z,10.70
2023-05-22T20:04:39.407Z,9.40
2023-05-22T20:07:09.048Z,9.20
2023-05-22T20:09:37.199Z,9.73
2023-05-22T20:12:05.555Z,10.00
2023-05-22T20:14:34.070Z,9.67
2023-05-22T20:17:02.944Z,10.13
2023-05-22T20:19:32.574Z,10.50
2023-05-22T20:22:00.950Z,9.23
2023-05-22T20:24:31.076Z,10.20
2023-05-22T20:26:59.308Z,10.50
2023-05-22T20:29:27.490Z,9.10
2023-05-22T20:31:55.909Z,8.47
2023-05-22T20:34:26.642Z,10.40
2023-05-22T20:36:55.102Z,10.17
2023-05-22T20:39:23.490Z,9.40
2023-05-22T20:41:53.079Z,10.07
2023-05-22T20:44:23.565Z,10.97
2023-05-22T20:46:53.259Z,10.40
2023-05-22T20:49:21.575Z,10.60
2023-05-22T20:51:50.080Z,10.07
2023-05-22T20:54:18.572Z,9.27
2023-05-22T20:56:46.762Z,10.20
2023-05-22T20:59:16.451Z,10.80
2023-05-22T21:01:44.632Z,9.03
2023-05-22T21:04:13.005Z,10.10
2023-05-22T21:06:41.218Z,8.97
2023-05-22T21:09:09.473Z,10.47
2023-05-22T21:11:37.672Z,10.20
2023-05-22T21:14:05.860Z,10.67
2023-05-22T21:16:39.174Z,9.80
2023-05-22T21:19:08.165Z,9.73
2023-05-22T21:21:41.468Z,11.10
2023-05-22T21:24:10.550Z,11.17
2023-05-22T21:26:38.985Z,10.90
2023-05-22T21:29:07.351Z,11.20
2023-05-22T21:31:36.992Z,10.57
2023-05-22T21:34:05.204Z,11.20
2023-05-22T21:36:33.331Z,11.50
2023-05-22T21:39:01.502Z,10.60
2023-05-22T21:41:29.634Z,10.67
2023-05-22T21:43:58.250Z,11.53
2023-05-22T21:46:26.404Z,9.83
2023-05-22T21:48:56.047Z,10.10
2023-05-22T21:51:24.263Z,11.40
2023-05-22T21:53:52.409Z,11.50
2023-05-22T21:56:20.589Z,10.20
2023-05-22T21:58:49.438Z,9.70
2023-05-22T22:01:17.651Z,11.80
2023-05-22T22:03:45.822Z,11.20
2023-05-22T22:06:15.544Z,11.60
2023-05-22T22:08:43.697Z,9.20
2023-05-22T22:11:11.881Z,11.27
2023-05-22T22:13:40.096Z,10.80
2023-05-22T22:16:08.386Z,10.80
2023-05-22T22:18:37.109Z,10.03
2023-05-22T22:21:05.264Z,10.80
2023-05-22T22:23:34.834Z,10.50
2023-05-22T22:26:02.980Z,11.63
2023-05-22T22:28:31.113Z,11.23
2023-05-22T22:30:59.273Z,11.43
2023-05-22T22:33:27.408Z,9.50
2023-05-22T22:35:56.328Z,11.87
2023-05-22T22:38:24.507Z,11.13
2023-05-22T22:40:54.035Z,10.77
2023-05-22T22:43:22.210Z,10.27
2023-05-22T22:45:50.464Z,10.10
2023-05-22T22:48:22.361Z,10.23
2023-05-22T22:50:52.375Z,10.33
2023-05-22T22:53:20.770Z,10.47
2023-05-22T22:55:49.650Z,9.70
2023-05-22T22:58:19.775Z,10.17
2023-05-22T23:00:48.438Z,10.73
2023-05-22T23:03:16.633Z,9.20
2023-05-22T23:05:44.997Z,10.53
2023-05-22T23:08:13.699Z,11.10
2023-05-22T23:10:41.854Z,11.30
2023-05-22T23:13:10.052Z,10.33
2023-05-22T23:15:39.748Z,11.30
2023-05-22T23:18:08.140Z,9.70
2023-05-22T23:20:36.661Z,10.83
2023-05-22T23:23:04.801Z,10.47
2023-05-22T23:25:32.968Z,10.97
2023-05-22T23:28:01.122Z,10.40
2023-05-22T23:30:29.300Z,10.23
2023-05-22T23:32:58.915Z,10.17
2023-05-22T23:35:27.178Z,9.93
2023-05-22T23:37:55.300Z,10.20
2023-05-22T23:40:23.441Z,11.50
2023-05-22T23:42:51.635Z,11.50
2023-05-22T23:45:19.834Z,10.90
2023-05-22T23:47:48.107Z,9.70
2023-05-22T23:50:17.870Z,10.10
2023-05-22T23:52:47.304Z,10.73
2023-05-22T23:55:15.667Z,10.70
2023-05-22T23:57:43.820Z,11.50
